createdAt,value
2019-03-06T00:01:26.066Z,12.57
2019-03-06T00:03:54.504Z,11.87
2019-03-06T00:06:23.211Z,16.67
2019-03-06T00:08:51.441Z,11.70
2019-03-06T00:11:19.514Z,12.07
2019-03-06T00:13:47.946Z,10.70
2019-03-06T00:16:16.250Z,11.97
2019-03-06T00:18:44.362Z,13.67
2019-03-06T00:21:12.311Z,13.90
2019-03-06T00:23:40.623Z,14.20
2019-03-06T00:26:08.731Z,13.10
2019-03-06T00:28:36.624Z,12.13
2019-03-06T00:31:04.584Z,14.40
2019-03-06T00:33:32.943Z,13.07
2019-03-06T00:36:01.891Z,15.23
2019-03-06T00:38:29.912Z,14.10
2019-03-06T00:41:20.618Z,14.57
2019-03-06T00:43:49.103Z,17.60
2019-03-06T00:46:17.703Z,16.83
2019-03-06T00:48:45.967Z,13.67
2019-03-06T00:51:14.339Z,15.53
2019-03-06T00:53:42.379Z,12.97
2019-03-06T00:56:10.327Z,13.67
2019-03-06T00:58:38.619Z,13.97
2019-03-06T01:01:06.955Z,11.90
2019-03-06T01:03:34.966Z,14.53
2019-03-06T01:06:03.138Z,10.33
2019-03-06T01:08:31.379Z,17.83
2019-03-06T01:10:59.305Z,12.80
2019-03-06T01:13:27.518Z,10.40
2019-03-06T01:15:55.970Z,12.63
2019-03-06T01:18:25.098Z,16.53
2019-03-06T01:20:53.541Z,13.73
2019-03-06T01:23:21.863Z,13.40
2019-03-06T01:25:50.255Z,13.13
2019-03-06T01:28:18.303Z,17.53
2019-03-06T01:30:46.799Z,13.87
2019-03-06T01:33:21.316Z,15.30
2019-03-06T01:36:01.442Z,12.50
2019-03-06T01:38:49.759Z,18.23
2019-03-06T01:41:30.328Z,15.23
2019-03-06T01:44:08.887Z,15.00
2019-03-06T01:46:37.207Z,15.47
2019-03-06T01:49:05.174Z,16.83
2019-03-06T01:51:33.650Z,12.30
2019-03-06T01:54:01.535Z,14.33
2019-03-06T01:56:29.631Z,13.13
2019-03-06T01:58:57.667Z,15.00
2019-03-06T02:01:26.047Z,16.37
2019-03-06T02:03:54.449Z,15.63
2019-03-06T02:06:23.016Z,14.53
2019-03-06T02:08:51.451Z,13.00
2019-03-06T02:11:19.982Z,13.73
2019-03-06T02:13:48.102Z,12.67
2019-03-06T02:16:16.436Z,14.23
2019-03-06T02:18:44.851Z,10.80
2019-03-06T02:21:12.702Z,13.37
2019-03-06T02:23:40.982Z,14.43
2019-03-06T02:26:09.204Z,13.93
2019-03-06T02:28:37.523Z,13.70
2019-03-06T02:31:06.235Z,13.33
2019-03-06T02:33:34.595Z,16.57
2019-03-06T02:36:02.982Z,12.63
2019-03-06T02:38:31.306Z,15.67
2019-03-06T02:40:59.443Z,18.00
2019-03-06T02:43:27.876Z,15.20
2019-03-06T02:45:56.292Z,12.93
2019-03-06T02:48:24.623Z,15.17
2019-03-06T02:50:52.965Z,13.33
2019-03-06T02:53:21.342Z,12.33
2019-03-06T02:55:49.747Z,18.30
2019-03-06T02:58:37.655Z,15.03
2019-03-06T03:01:17.540Z,15.07
2019-03-06T03:04:17.676Z,13.70
2019-03-06T03:07:05.023Z,11.87
2019-03-06T03:09:33.678Z,12.23
2019-03-06T03:12:01.966Z,14.47
2019-03-06T03:14:30.331Z,11.43
2019-03-06T03:16:58.599Z,15.23
2019-03-06T03:19:26.966Z,14.77
2019-03-06T03:21:55.312Z,13.00
2019-03-06T03:24:23.406Z,13.10
2019-03-06T03:26:51.613Z,11.80
2019-03-06T03:29:19.943Z,13.57
2019-03-06T03:32:07.405Z,13.73
2019-03-06T03:34:36.126Z,15.30
2019-03-06T03:37:04.437Z,12.67
2019-03-06T03:39:32.317Z,13.63
2019-03-06T03:42:00.619Z,17.63
2019-03-06T03:44:28.881Z,11.83
2019-03-06T03:47:16.225Z,15.17
2019-03-06T03:49:44.449Z,11.93
2019-03-06T03:52:12.780Z,14.43
2019-03-06T03:54:41.067Z,16.87
2019-03-06T03:57:09.543Z,13.90
2019-03-06T03:59:37.555Z,14.03
2019-03-06T04:02:05.967Z,14.43
2019-03-06T04:04:33.930Z,13.00
2019-03-06T04:07:02.042Z,18.17
2019-03-06T04:09:29.895Z,14.80
2019-03-06T04:11:58.139Z,14.57
2019-03-06T04:14:26.032Z,16.53
2019-03-06T04:16:54.305Z,17.03
2019-03-06T04:19:22.059Z,13.73
2019-03-06T04:21:50.080Z,14.03
2019-03-06T04:24:18.084Z,18.40
2019-03-06T04:26:45.920Z,15.83
2019-03-06T04:29:13.867Z,17.73
2019-03-06T04:31:41.787Z,14.30
2019-03-06T04:34:09.635Z,14.20
2019-03-06T04:36:37.604Z,14.10
2019-03-06T04:39:05.637Z,13.03
2019-03-06T04:41:33.522Z,12.07
2019-03-06T04:44:01.379Z,13.73
2019-03-06T04:46:29.765Z,13.50
2019-03-06T04:48:57.727Z,10.00
2019-03-06T04:51:25.683Z,14.40
2019-03-06T04:53:53.627Z,14.73
2019-03-06T04:56:21.661Z,13.70
2019-03-06T04:58:49.574Z,11.30
2019-03-06T05:01:17.438Z,9.37
2019-03-06T05:03:45.450Z,12.03
2019-03-06T05:06:13.695Z,14.77
2019-03-06T05:08:41.567Z,11.13
2019-03-06T05:11:11.022Z,15.37
2019-03-06T05:13:38.978Z,14.77
2019-03-06T05:16:06.935Z,12.73
2019-03-06T05:18:54.326Z,10.47
2019-03-06T05:21:22.190Z,12.00
2019-03-06T05:23:50.059Z,12.77
2019-03-06T05:26:18.027Z,15.30
2019-03-06T05:28:46.353Z,12.13
2019-03-06T05:31:14.398Z,15.30
2019-03-06T05:33:42.692Z,8.53
2019-03-06T05:36:52.069Z,13.87
2019-03-06T05:39:20.004Z,11.03
2019-03-06T05:41:47.928Z,9.30
2019-03-06T05:44:15.979Z,9.53
2019-03-06T05:46:43.950Z,12.33
2019-03-06T05:49:11.856Z,13.40
2019-03-06T05:51:39.757Z,10.17
2019-03-06T05:54:07.622Z,10.37
2019-03-06T05:56:35.883Z,11.40
2019-03-06T05:59:04.184Z,9.67
2019-03-06T06:01:32.299Z,8.13
2019-03-06T06:04:00.129Z,11.17
2019-03-06T06:06:28.136Z,10.97
2019-03-06T06:08:56.285Z,11.10
2019-03-06T06:11:26.833Z,14.33
2019-03-06T06:13:55.035Z,11.33
2019-03-06T06:16:23.119Z,12.67
2019-03-06T06:18:51.026Z,12.80
2019-03-06T06:21:37.031Z,8.77
2019-03-06T06:24:17.453Z,9.83
2019-03-06T06:26:45.390Z,13.33
2019-03-06T06:29:13.323Z,13.50
2019-03-06T06:31:41.187Z,12.70
2019-03-06T06:34:09.179Z,11.13
2019-03-06T06:36:37.115Z,13.87
2019-03-06T06:39:05.779Z,13.90
2019-03-06T06:41:33.806Z,14.73
2019-03-06T06:44:01.785Z,14.73
2019-03-06T06:46:29.685Z,13.17
2019-03-06T06:48:58.042Z,13.63
2019-03-06T06:51:39.880Z,11.60
2019-03-06T06:54:32.467Z,13.67
2019-03-06T06:57:54.310Z,13.50
2019-03-06T07:01:07.924Z,11.83
2019-03-06T07:04:53.631Z,13.93
2019-03-06T07:07:46.848Z,13.93
2019-03-06T07:10:43.189Z,13.73
2019-03-06T07:13:25.485Z,13.33
2019-03-06T07:16:22.018Z,13.27
2019-03-06T07:19:15.038Z,12.30
2019-03-06T07:21:58.835Z,17.43
2019-03-06T07:24:49.026Z,20.70
2019-03-06T07:27:39.272Z,16.10
2019-03-06T07:30:25.110Z,19.40
2019-03-06T07:33:17.030Z,17.10
2019-03-06T07:36:19.282Z,14.90
2019-03-06T07:38:54.182Z,19.03
2019-03-06T07:41:40.269Z,18.53
2019-03-06T07:44:31.395Z,16.57
2019-03-06T07:47:18.178Z,28.97
2019-03-06T07:50:15.519Z,31.40
2019-03-06T07:53:14.959Z,37.10
2019-03-06T07:55:54.314Z,34.43
2019-03-06T07:58:50.063Z,37.03
2019-03-06T08:01:18.063Z,38.83
2019-03-06T08:03:53.355Z,40.93
2019-03-06T08:06:21.273Z,35.30
2019-03-06T08:08:49.197Z,25.67
2019-03-06T08:11:41.182Z,31.33
2019-03-06T08:14:33.560Z,28.93
2019-03-06T08:17:23.675Z,22.40
2019-03-06T08:20:09.595Z,26.03
2019-03-06T08:22:54.842Z,24.70
2019-03-06T08:25:32.812Z,28.80
2019-03-06T08:28:00.761Z,24.00
2019-03-06T08:30:30.855Z,24.10
2019-03-06T08:32:58.858Z,28.53
2019-03-06T08:35:27.052Z,25.70
2019-03-06T08:37:55.121Z,28.20
2019-03-06T08:40:23.118Z,25.07
2019-03-06T08:42:52.454Z,20.57
2019-03-06T08:45:22.838Z,23.30
2019-03-06T08:48:10.206Z,23.27
2019-03-06T08:50:50.671Z,20.63
2019-03-06T08:53:23.281Z,17.67
2019-03-06T08:56:25.460Z,23.70
2019-03-06T08:59:15.659Z,21.90
2019-03-06T09:02:03.011Z,22.47
2019-03-06T09:05:03.904Z,23.10
2019-03-06T09:08:00.299Z,21.23
2019-03-06T09:10:50.743Z,22.53
2019-03-06T09:13:36.597Z,21.43
2019-03-06T09:16:19.539Z,21.80
2019-03-06T09:19:25.079Z,26.10
2019-03-06T09:22:01.766Z,20.27
2019-03-06T09:24:49.206Z,22.30
2019-03-06T09:27:51.579Z,22.57
2019-03-06T09:30:30.517Z,23.27
2019-03-06T09:33:17.831Z,18.60
2019-03-06T09:36:07.727Z,16.83
2019-03-06T09:39:00.926Z,18.80
2019-03-06T09:41:48.214Z,14.53
2019-03-06T09:44:22.384Z,14.67
2019-03-06T09:47:08.023Z,17.77
2019-03-06T09:50:01.050Z,13.27
2019-03-06T09:52:46.877Z,15.90
2019-03-06T09:55:32.319Z,19.17
2019-03-06T09:58:18.913Z,12.63
2019-03-06T10:01:06.235Z,15.87
2019-03-06T10:03:52.560Z,12.53
2019-03-06T10:06:42.658Z,15.50
2019-03-06T10:09:42.312Z,17.47
2019-03-06T10:12:26.909Z,11.87
2019-03-06T10:15:26.306Z,10.83
2019-03-06T10:18:06.962Z,14.60
2019-03-06T10:20:34.923Z,14.57
2019-03-06T10:23:03.069Z,12.20
2019-03-06T10:25:31.316Z,9.80
2019-03-06T10:28:06.217Z,12.80
2019-03-06T10:30:30.770Z,13.33
2019-03-06T10:32:59.103Z,9.27
2019-03-06T10:35:27.331Z,10.60
2019-03-06T10:37:55.522Z,7.23
2019-03-06T10:40:23.716Z,12.27
2019-03-06T10:42:52.914Z,11.97
2019-03-06T10:45:20.859Z,9.13
2019-03-06T10:47:50.553Z,11.13
2019-03-06T10:50:26.585Z,9.30
2019-03-06T10:52:52.425Z,10.60
2019-03-06T10:55:20.719Z,8.13
2019-03-06T10:57:50.189Z,8.87
2019-03-06T11:00:21.795Z,10.63
2019-03-06T11:02:51.969Z,7.30
2019-03-06T11:05:30.922Z,13.03
2019-03-06T11:08:00.207Z,8.90
2019-03-06T11:10:29.768Z,10.90
2019-03-06T11:12:58.323Z,9.65
2019-03-06T11:15:36.147Z,8.65
2019-03-06T11:18:04.464Z,7.87
2019-03-06T11:20:33.387Z,8.88
2019-03-06T11:23:03.268Z,15.70
2019-03-06T11:25:31.848Z,8.10
2019-03-06T11:28:00.041Z,6.80
2019-03-06T11:30:32.312Z,9.90
2019-03-06T11:33:00.438Z,10.82
2019-03-06T11:35:28.823Z,6.58
2019-03-06T11:37:56.927Z,6.87
2019-03-06T11:40:24.947Z,10.45
2019-03-06T11:42:52.990Z,4.60
2019-03-06T11:45:21.231Z,7.30
2019-03-06T11:47:49.134Z,6.53
2019-03-06T11:50:17.407Z,6.35
2019-03-06T11:52:45.386Z,6.17
2019-03-06T11:55:13.915Z,4.92
2019-03-06T11:57:43.198Z,4.87
2019-03-06T12:00:23.807Z,5.37
2019-03-06T12:02:53.454Z,8.00
2019-03-06T12:05:22.313Z,7.65
2019-03-06T12:07:51.722Z,7.62
2019-03-06T12:10:20.626Z,5.70
2019-03-06T12:12:48.648Z,8.90
2019-03-06T12:15:47.512Z,8.45
2019-03-06T12:18:15.786Z,6.95
2019-03-06T12:20:44.114Z,7.40
2019-03-06T12:23:12.230Z,9.10
2019-03-06T12:25:41.206Z,6.33
2019-03-06T12:28:10.657Z,8.20
2019-03-06T12:30:39.415Z,7.80
2019-03-06T12:33:07.590Z,7.45
2019-03-06T12:35:35.946Z,7.30
2019-03-06T12:38:04.219Z,6.37
2019-03-06T12:40:32.785Z,8.60
2019-03-06T12:43:00.955Z,6.83
2019-03-06T12:45:29.699Z,7.85
2019-03-06T12:47:58.143Z,8.30
2019-03-06T12:50:26.318Z,7.60
2019-03-06T12:52:54.387Z,8.03
2019-03-06T12:55:22.712Z,8.80
2019-03-06T12:57:59.075Z,8.30
2019-03-06T13:00:22.993Z,5.93
2019-03-06T13:02:52.234Z,6.77
2019-03-06T13:05:21.323Z,7.27
2019-03-06T13:07:50.354Z,7.07
2019-03-06T13:10:18.798Z,8.88
2019-03-06T13:12:47.086Z,7.47
2019-03-06T13:15:52.307Z,8.10
2019-03-06T13:18:18.938Z,7.83
2019-03-06T13:20:46.895Z,8.77
2019-03-06T13:23:14.876Z,8.60
2019-03-06T13:25:42.846Z,8.10
2019-03-06T13:28:11.016Z,6.17
2019-03-06T13:30:39.566Z,7.73
2019-03-06T13:33:17.199Z,9.68
2019-03-06T13:35:45.079Z,6.50
2019-03-06T13:38:13.094Z,10.20
2019-03-06T13:40:41.403Z,6.83
2019-03-06T13:43:09.272Z,6.60
2019-03-06T13:45:37.563Z,7.80
2019-03-06T13:48:05.615Z,7.47
2019-03-06T13:50:33.725Z,9.67
2019-03-06T13:53:02.019Z,9.00
2019-03-06T13:55:29.939Z,6.37
2019-03-06T13:57:58.079Z,6.03
2019-03-06T14:00:26.174Z,11.33
2019-03-06T14:02:54.263Z,6.80
2019-03-06T14:05:23.337Z,7.60
2019-03-06T14:07:56.441Z,7.93
2019-03-06T14:10:22.467Z,7.27
2019-03-06T14:12:52.007Z,10.77
2019-03-06T14:15:57.521Z,7.33
2019-03-06T14:18:24.143Z,6.53
2019-03-06T14:20:52.613Z,7.80
2019-03-06T14:23:21.347Z,8.67
2019-03-06T14:25:49.610Z,10.80
2019-03-06T14:28:17.565Z,12.53
2019-03-06T14:30:46.078Z,9.63
2019-03-06T14:33:14.077Z,8.37
2019-03-06T14:35:42.414Z,9.47
2019-03-06T14:38:10.480Z,9.07
2019-03-06T14:40:38.523Z,7.50
2019-03-06T14:43:07.085Z,10.37
2019-03-06T14:45:35.217Z,7.43
2019-03-06T14:48:03.434Z,11.07
2019-03-06T14:50:31.507Z,9.43
2019-03-06T14:53:00.085Z,9.67
2019-03-06T14:55:28.192Z,8.67
2019-03-06T14:57:56.099Z,7.47
2019-03-06T15:00:24.561Z,7.60
2019-03-06T15:02:53.814Z,8.63
2019-03-06T15:05:22.452Z,10.87
2019-03-06T15:07:51.893Z,13.87
2019-03-06T15:10:19.894Z,12.93
2019-03-06T15:12:48.153Z,10.73
2019-03-06T15:15:50.622Z,12.10
2019-03-06T15:18:17.627Z,12.53
2019-03-06T15:20:45.552Z,8.87
2019-03-06T15:23:13.653Z,8.83
2019-03-06T15:25:41.721Z,9.93
2019-03-06T15:28:09.720Z,7.83
2019-03-06T15:30:38.891Z,9.03
2019-03-06T15:33:06.963Z,10.03
2019-03-06T15:35:35.020Z,10.63
2019-03-06T15:38:04.732Z,9.73
2019-03-06T15:40:32.894Z,11.97
2019-03-06T15:43:01.305Z,10.67
2019-03-06T15:45:30.151Z,9.87
2019-03-06T15:47:59.455Z,9.83
2019-03-06T15:50:28.171Z,10.73
2019-03-06T15:52:56.471Z,10.77
2019-03-06T15:55:25.559Z,12.37
2019-03-06T15:57:54.162Z,9.40
2019-03-06T16:00:33.987Z,11.13
2019-03-06T16:03:03.161Z,9.53
2019-03-06T16:05:31.748Z,9.50
2019-03-06T16:07:59.942Z,9.37
2019-03-06T16:10:28.613Z,15.43
2019-03-06T16:12:56.727Z,15.63
2019-03-06T16:15:59.581Z,24.27
2019-03-06T16:18:26.399Z,28.67
2019-03-06T16:20:54.373Z,30.97
2019-03-06T16:23:22.574Z,34.80
2019-03-06T16:25:50.918Z,29.60
2019-03-06T16:28:19.074Z,24.70
2019-03-06T16:30:47.381Z,20.00
2019-03-06T16:33:15.337Z,17.93
2019-03-06T16:35:43.494Z,27.87
2019-03-06T16:38:11.947Z,32.40
2019-03-06T16:40:40.137Z,25.97
2019-03-06T16:43:08.616Z,25.50
2019-03-06T16:45:37.263Z,31.27
2019-03-06T16:48:07.330Z,27.30
2019-03-06T16:50:35.992Z,30.50
2019-03-06T16:53:04.884Z,29.47
2019-03-06T16:55:33.269Z,28.80
2019-03-06T16:58:01.814Z,28.70
2019-03-06T17:00:31.834Z,25.43
2019-03-06T17:03:01.026Z,24.63
2019-03-06T17:05:29.941Z,23.63
2019-03-06T17:07:59.186Z,22.00
2019-03-06T17:10:28.846Z,37.47
2019-03-06T17:12:57.931Z,61.83
2019-03-06T17:16:02.670Z,59.10
2019-03-06T17:18:30.302Z,67.67
2019-03-06T17:20:59.151Z,50.90
2019-03-06T17:23:27.909Z,38.77
2019-03-06T17:25:56.953Z,30.70
2019-03-06T17:28:25.891Z,29.33
2019-03-06T17:30:54.736Z,29.77
2019-03-06T17:33:23.735Z,33.43
2019-03-06T17:35:52.874Z,24.87
2019-03-06T17:38:21.784Z,19.90
2019-03-06T17:40:50.779Z,24.23
2019-03-06T17:43:19.716Z,25.87
2019-03-06T17:45:48.608Z,25.57
2019-03-06T17:48:19.968Z,26.63
2019-03-06T17:50:48.750Z,27.80
2019-03-06T17:53:17.710Z,28.00
2019-03-06T17:55:47.338Z,24.40
2019-03-06T17:58:16.202Z,20.17
2019-03-06T18:00:47.745Z,25.57
2019-03-06T18:03:21.361Z,20.27
2019-03-06T18:05:50.151Z,24.07
2019-03-06T18:08:19.091Z,23.13
2019-03-06T18:10:47.892Z,22.57
2019-03-06T18:13:16.761Z,16.70
2019-03-06T18:16:27.200Z,19.63
2019-03-06T18:18:54.326Z,19.43
2019-03-06T18:21:23.489Z,15.83
2019-03-06T18:23:52.286Z,23.60
2019-03-06T18:26:21.089Z,26.30
2019-03-06T18:28:49.997Z,28.40
2019-03-06T18:31:18.813Z,25.87
2019-03-06T18:33:47.910Z,26.03
2019-03-06T18:36:16.825Z,23.37
2019-03-06T18:38:45.708Z,26.47
2019-03-06T18:41:14.627Z,21.53
2019-03-06T18:43:43.501Z,25.77
2019-03-06T18:46:12.550Z,23.80
2019-03-06T18:48:42.524Z,30.53
2019-03-06T18:51:11.337Z,41.13
2019-03-06T18:53:40.337Z,34.90
2019-03-06T18:56:09.179Z,30.27
2019-03-06T18:58:38.175Z,36.47
2019-03-06T19:01:07.026Z,31.03
2019-03-06T19:03:35.857Z,21.93
2019-03-06T19:06:04.708Z,23.33
2019-03-06T19:08:33.486Z,30.97
2019-03-06T19:11:02.339Z,27.80
2019-03-06T19:13:31.242Z,25.47
2019-03-06T19:16:42.579Z,24.40
2019-03-06T19:19:09.718Z,21.17
2019-03-06T19:21:38.667Z,24.13
2019-03-06T19:24:07.657Z,22.27
2019-03-06T19:26:36.501Z,31.27
2019-03-06T19:29:09.867Z,34.50
2019-03-06T19:31:39.917Z,32.27
2019-03-06T19:34:12.418Z,38.87
2019-03-06T19:37:10.581Z,36.23
2019-03-06T19:39:43.686Z,45.87
2019-03-06T19:42:20.153Z,50.63
2019-03-06T19:44:55.021Z,98.43
2019-03-06T19:47:28.785Z,108.33
2019-03-06T19:50:06.137Z,51.73
2019-03-06T19:52:40.977Z,34.67
2019-03-06T19:55:12.288Z,28.97
2019-03-06T19:58:34.588Z,22.50
2019-03-06T20:01:04.958Z,27.47
2019-03-06T20:03:33.867Z,35.07
2019-03-06T20:06:02.734Z,47.33
2019-03-06T20:08:31.680Z,34.83
2019-03-06T20:11:00.578Z,29.20
2019-03-06T20:13:29.440Z,35.40
2019-03-06T20:16:48.461Z,32.77
2019-03-06T20:19:16.968Z,28.10
2019-03-06T20:21:46.385Z,28.27
2019-03-06T20:24:16.945Z,31.43
2019-03-06T20:26:46.496Z,31.83
2019-03-06T20:29:15.929Z,32.60
2019-03-06T20:31:44.796Z,29.07
2019-03-06T20:34:15.381Z,27.63
2019-03-06T20:36:45.684Z,27.30
2019-03-06T20:39:15.097Z,26.37
2019-03-06T20:41:44.531Z,30.77
2019-03-06T20:44:13.428Z,27.73
2019-03-06T20:46:42.297Z,25.47
2019-03-06T20:49:11.263Z,30.30
2019-03-06T20:51:40.201Z,21.30
2019-03-06T20:54:09.046Z,21.87
2019-03-06T20:56:37.854Z,23.63
2019-03-06T20:59:06.943Z,22.93
2019-03-06T21:01:36.114Z,23.30
2019-03-06T21:04:04.952Z,18.70
2019-03-06T21:06:36.349Z,20.67
2019-03-06T21:09:05.417Z,20.23
2019-03-06T21:11:36.289Z,25.37
2019-03-06T21:14:05.222Z,21.07
2019-03-06T21:17:06.771Z,15.97
2019-03-06T21:19:36.744Z,15.00
2019-03-06T21:22:06.109Z,14.60
2019-03-06T21:24:35.746Z,11.87
2019-03-06T21:27:49.005Z,14.37
2019-03-06T21:30:32.610Z,13.67
2019-03-06T21:33:01.519Z,9.17
2019-03-06T21:35:31.003Z,11.80
2019-03-06T21:38:00.775Z,10.87
2019-03-06T21:40:29.774Z,10.27
2019-03-06T21:43:01.602Z,13.70
2019-03-06T21:45:30.433Z,11.30
2019-03-06T21:47:59.092Z,16.17
2019-03-06T21:50:27.743Z,13.30
2019-03-06T21:52:56.090Z,15.73
2019-03-06T21:55:24.568Z,14.67
2019-03-06T21:57:54.854Z,11.33
2019-03-06T22:00:23.443Z,13.00
2019-03-06T22:02:54.051Z,15.47
2019-03-06T22:05:22.447Z,22.57
2019-03-06T22:07:52.622Z,20.43
2019-03-06T22:10:20.942Z,17.00
2019-03-06T22:12:49.002Z,12.60
2019-03-06T22:15:51.760Z,11.50
2019-03-06T22:18:18.767Z,12.33
2019-03-06T22:20:46.672Z,16.47
2019-03-06T22:23:14.786Z,16.23
2019-03-06T22:25:42.805Z,12.90
2019-03-06T22:28:11.010Z,11.13
2019-03-06T22:30:39.040Z,11.60
2019-03-06T22:33:07.048Z,9.10
2019-03-06T22:35:35.004Z,11.43
2019-03-06T22:38:03.269Z,13.10
2019-03-06T22:40:31.269Z,10.67
2019-03-06T22:42:59.230Z,12.70
2019-03-06T22:45:27.275Z,12.53
2019-03-06T22:47:55.298Z,9.23
2019-03-06T22:50:23.790Z,9.83
2019-03-06T22:52:58.190Z,10.50
2019-03-06T22:55:26.129Z,9.23
2019-03-06T22:57:55.374Z,11.23
2019-03-06T23:00:46.650Z,11.83
2019-03-06T23:03:15.200Z,15.37
2019-03-06T23:05:43.231Z,16.87
2019-03-06T23:08:11.739Z,9.93
2019-03-06T23:10:39.822Z,10.47
2019-03-06T23:13:07.663Z,10.20
2019-03-06T23:15:35.737Z,11.73
2019-03-06T23:18:04.454Z,10.80
2019-03-06T23:20:32.371Z,12.30
2019-03-06T23:23:00.251Z,10.90
2019-03-06T23:25:28.120Z,13.67
2019-03-06T23:27:56.092Z,11.87
2019-03-06T23:30:24.409Z,10.33
2019-03-06T23:32:54.137Z,10.40
2019-03-06T23:35:22.287Z,9.97
2019-03-06T23:37:50.178Z,14.70
2019-03-06T23:40:18.302Z,10.30
2019-03-06T23:42:47.960Z,12.77
2019-03-06T23:45:16.087Z,10.37
2019-03-06T23:47:43.918Z,12.20
2019-03-06T23:50:12.599Z,10.73
2019-03-06T23:52:58.539Z,10.23
2019-03-06T23:55:27.606Z,10.57
2019-03-06T23:57:55.874Z,10.57
